首页
METAR-TAF:

METAR-TAF

机场 :

Chièvres, 比利时

纬度: 50-34N, 经度: 003-50E, 海拔: 60米

当前天气观测

该预报发布于13分钟前的11:16 UTC
风速12节,风向西转西南
温度 23°C
湿度 73%
气压 1013 hPa
能见度10公里或以上

METAR: EBCV 141116Z AUTO 24012KT 9999 BKN020/// 23/18 Q1013 WHT

时间: 13:29 (11:29 UTC)

预报

该预报发布于2小时和48分钟前的08:41 UTC
预报有效从14日的 10点(UTC)到 14日的 19点(UTC)
风速5节,风向西南
能见度10公里或以上
少量云层高于1300英尺
多云层高于1800英尺
短暂存在
从 14日的 10点(UTC)到 14日的 19点(UTC)
能見度: 6000
散云层高于1200英尺
多云层高于1500英尺
小阵雨, 小雨
几率 40% :
短暂存在
从 14日的 10点(UTC)到 14日的 19点(UTC)
风速15节,风向多变,有时为30节阵风
能見度: 4000
散云层高于1000英尺, 积雨云.
多云层高于1500英尺
阵雨, 雷暴, 雨
几率 30% :
短暂存在
从 14日的 10点(UTC)到 14日的 19点(UTC)
风速20节,风向多变,有时为40节阵风
能見度: 2000
散云层高于500英尺
多云层高于800英尺, 积雨云.
雷暴, 大雨, 冰雹
成为
从 14日的 12点(UTC)到 14日的 14点(UTC)
风速5节,风向西

TAF: EBCV 140841Z 1410/1419 22005KT 9999 FEW013 BKN018 TEMPO 1410/1419 6000 -SHRA -RA SCT012 BKN015 PROB40 TEMPO 1410/1419 VRB15G30KT 4000 SHRA TSRA SCT010CB BKN015 PROB30 TEMPO 1410/1419 VRB20G40KT 2000 +TSRAGR SCT005 BKN008CB BECMG 1412/1414 26005KT BY EBWM

超过4000个机场的气象观测和天气预报(METAR&TAF报告)。

可查询的气象台以黄色和红色小点在地图上表示。

将鼠标移到小点上方,可查看气象台名称。

然后点击查看天气观测和预报。

如需切换地图:点击带黑十字的绿色按钮放大地图;点击带横线的绿色按钮缩小地图;或者点击绿色箭头查看邻近地区的地图。


METAR-TAF: